sensor_id;sensor_type;location;lat;lon;timestamp;temperature;humidity
23395;DHT22;11870;53.084;18.206;2023-07-29T00:06:17;12.10;99.90
23395;DHT22;11870;53.084;18.206;2023-07-29T00:16:01;12.10;99.90
23395;DHT22;11870;53.084;18.206;2023-07-29T00:35:34;11.70;99.90
23395;DHT22;11870;53.084;18.206;2023-07-29T00:40:28;11.60;99.90
23395;DHT22;11870;53.084;18.206;2023-07-29T00:45:21;11.80;99.90
23395;DHT22;11870;53.084;18.206;2023-07-29T00:47:47;11.50;99.90
23395;DHT22;11870;53.084;18.206;2023-07-29T00:50:14;11.50;99.90
23395;DHT22;11870;53.084;18.206;2023-07-29T00:55:08;11.60;99.90
23395;DHT22;11870;53.084;18.206;2023-07-29T01:07:59;11.20;99.90
23395;DHT22;11870;53.084;18.206;2023-07-29T01:10:46;11.20;99.90
23395;DHT22;11870;53.084;18.206;2023-07-29T01:13:37;11.10;99.90
23395;DHT22;11870;53.084;18.206;2023-07-29T01:18:42;11.00;99.90
23395;DHT22;11870;53.084;18.206;2023-07-29T01:31:07;11.20;99.90
23395;DHT22;11870;53.084;18.206;2023-07-29T01:53:22;10.60;99.90
23395;DHT22;11870;53.084;18.206;2023-07-29T01:55:48;10.60;99.90
23395;DHT22;11870;53.084;18.206;2023-07-29T01:58:14;10.50;99.90
23395;DHT22;11870;53.084;18.206;2023-07-29T02:00:40;12.10;99.90
23395;DHT22;11870;53.084;18.206;2023-07-29T02:03:06;12.40;99.90
23395;DHT22;11870;53.084;18.206;2023-07-29T02:05:32;10.40;99.90
23395;DHT22;11870;53.084;18.206;2023-07-29T02:07:58;12.30;99.90
23395;DHT22;11870;53.084;18.206;2023-07-29T02:10:24;12.20;99.90
23395;DHT22;11870;53.084;18.206;2023-07-29T02:20:09;10.20;99.90
23395;DHT22;11870;53.084;18.206;2023-07-29T02:25:03;10.10;99.90
23395;DHT22;11870;53.084;18.206;2023-07-29T03:16:17;10.00;99.90
23395;DHT22;11870;53.084;18.206;2023-07-29T03:18:44;10.10;99.90
23395;DHT22;11870;53.084;18.206;2023-07-29T03:28:37;10.20;99.90
23395;DHT22;11870;53.084;18.206;2023-07-29T03:40:50;11.60;99.90
23395;DHT22;11870;53.084;18.206;2023-07-29T03:50:36;14.30;99.90
23395;DHT22;11870;53.084;18.206;2023-07-29T03:53:03;14.30;99.90
23395;DHT22;11870;53.084;18.206;2023-07-29T03:55:30;15.80;99.90
23395;DHT22;11870;53.084;18.206;2023-07-29T03:57:59;16.40;99.90
23395;DHT22;11870;53.084;18.206;2023-07-29T04:00:26;16.90;99.90
23395;DHT22;11870;53.084;18.206;2023-07-29T04:02:52;17.40;99.90
23395;DHT22;11870;53.084;18.206;2023-07-29T04:07:45;17.90;99.90
23395;DHT22;11870;53.084;18.206;2023-07-29T04:12:37;19.10;99.90
23395;DHT22;11870;53.084;18.206;2023-07-29T04:15:03;19.30;99.90
23395;DHT22;11870;53.084;18.206;2023-07-29T04:17:29;19.50;99.90
23395;DHT22;11870;53.084;18.206;2023-07-29T04:19:55;19.40;99.90
23395;DHT22;11870;53.084;18.206;2023-07-29T04:22:21;20.00;99.90
23395;DHT22;11870;53.084;18.206;2023-07-29T04:24:47;19.70;99.90
23395;DHT22;11870;53.084;18.206;2023-07-29T04:32:06;21.30;99.90
23395;DHT22;11870;53.084;18.206;2023-07-29T04:36:58;23.20;99.90
23395;DHT22;11870;53.084;18.206;2023-07-29T04:39:24;24.00;99.90
23395;DHT22;11870;53.084;18.206;2023-07-29T05:20:53;32.40;37.40
23395;DHT22;11870;53.084;18.206;2023-07-29T06:21:57;40.90;27.30
23395;DHT22;11870;53.084;18.206;2023-07-29T06:26:49;40.70;27.50
23395;DHT22;11870;53.084;18.206;2023-07-29T06:29:15;39.90;28.00
23395;DHT22;11870;53.084;18.206;2023-07-29T06:31:41;40.60;28.40
23395;DHT22;11870;53.084;18.206;2023-07-29T06:36:33;40.60;27.60
23395;DHT22;11870;53.084;18.206;2023-07-29T06:41:25;41.60;26.90
23395;DHT22;11870;53.084;18.206;2023-07-29T06:43:52;40.70;26.20
23395;DHT22;11870;53.084;18.206;2023-07-29T06:46:17;40.60;24.50
23395;DHT22;11870;53.084;18.206;2023-07-29T06:51:09;41.30;26.50
23395;DHT22;11870;53.084;18.206;2023-07-29T06:56:02;41.20;27.30
23395;DHT22;11870;53.084;18.206;2023-07-29T06:58:28;41.40;26.70
23395;DHT22;11870;53.084;18.206;2023-07-29T07:03:20;40.80;26.20
23395;DHT22;11870;53.084;18.206;2023-07-29T07:08:13;41.90;26.00
23395;DHT22;11870;53.084;18.206;2023-07-29T07:13:05;41.00;27.00
23395;DHT22;11870;53.084;18.206;2023-07-29T07:17:57;42.50;26.20
23395;DHT22;11870;53.084;18.206;2023-07-29T07:20:23;41.80;25.70
23395;DHT22;11870;53.084;18.206;2023-07-29T07:22:49;41.70;26.20
23395;DHT22;11870;53.084;18.206;2023-07-29T07:27:41;41.80;26.20
23395;DHT22;11870;53.084;18.206;2023-07-29T07:30:07;43.30;25.10
23395;DHT22;11870;53.084;18.206;2023-07-29T07:32:34;43.80;23.00
23395;DHT22;11870;53.084;18.206;2023-07-29T07:37:26;43.60;22.40
23395;DHT22;11870;53.084;18.206;2023-07-29T07:39:52;43.10;22.80
23395;DHT22;11870;53.084;18.206;2023-07-29T07:42:18;43.70;22.40
23395;DHT22;11870;53.084;18.206;2023-07-29T07:47:10;44.40;20.70
23395;DHT22;11870;53.084;18.206;2023-07-29T07:54:28;44.40;18.60
23395;DHT22;11870;53.084;18.206;2023-07-29T07:56:54;44.90;20.10
23395;DHT22;11870;53.084;18.206;2023-07-29T08:06:39;45.50;16.90
23395;DHT22;11870;53.084;18.206;2023-07-29T08:11:32;45.70;19.20
23395;DHT22;11870;53.084;18.206;2023-07-29T08:13:58;45.40;19.00
23395;DHT22;11870;53.084;18.206;2023-07-29T08:28:38;44.00;17.40
23395;DHT22;11870;53.084;18.206;2023-07-29T08:31:05;44.90;16.90
23395;DHT22;11870;53.084;18.206;2023-07-29T08:41:14;44.80;18.70
23395;DHT22;11870;53.084;18.206;2023-07-29T08:43:48;45.50;15.80
23395;DHT22;11870;53.084;18.206;2023-07-29T08:48:43;45.40;15.90
23395;DHT22;11870;53.084;18.206;2023-07-29T08:51:10;44.40;16.10
23395;DHT22;11870;53.084;18.206;2023-07-29T08:53:37;42.80;17.90
23395;DHT22;11870;53.084;18.206;2023-07-29T08:56:04;42.80;19.90
23395;DHT22;11870;53.084;18.206;2023-07-29T09:03:24;41.90;19.90
23395;DHT22;11870;53.084;18.206;2023-07-29T09:05:50;40.80;22.00
23395;DHT22;11870;53.084;18.206;2023-07-29T09:08:17;40.50;19.50
23395;DHT22;11870;53.084;18.206;2023-07-29T09:10:44;41.20;21.80
23395;DHT22;11870;53.084;18.206;2023-07-29T09:15:37;41.20;22.00
23395;DHT22;11870;53.084;18.206;2023-07-29T09:18:17;40.70;21.80
23395;DHT22;11870;53.084;18.206;2023-07-29T09:20:47;40.60;22.80
23395;DHT22;11870;53.084;18.206;2023-07-29T09:23:14;40.50;22.30
23395;DHT22;11870;53.084;18.206;2023-07-29T09:25:40;40.90;20.70
23395;DHT22;11870;53.084;18.206;2023-07-29T09:28:12;41.00;20.00
23395;DHT22;11870;53.084;18.206;2023-07-29T09:30:43;40.60;20.70
23395;DHT22;11870;53.084;18.206;2023-07-29T09:33:10;42.30;19.00
23395;DHT22;11870;53.084;18.206;2023-07-29T09:35:38;42.60;18.40
23395;DHT22;11870;53.084;18.206;2023-07-29T09:38:05;41.60;19.50
23395;DHT22;11870;53.084;18.206;2023-07-29T09:40:36;40.90;19.80
23395;DHT22;11870;53.084;18.206;2023-07-29T09:43:04;40.00;19.60
23395;DHT22;11870;53.084;18.206;2023-07-29T09:45:33;40.10;20.30
23395;DHT22;11870;53.084;18.206;2023-07-29T09:48:00;38.50;21.80
23395;DHT22;11870;53.084;18.206;2023-07-29T09:50:27;38.00;22.60
23395;DHT22;11870;53.084;18.206;2023-07-29T09:52:55;39.10;22.10
23395;DHT22;11870;53.084;18.206;2023-07-29T09:55:33;41.10;20.60
23395;DHT22;11870;53.084;18.206;2023-07-29T09:58:00;42.50;19.10
23395;DHT22;11870;53.084;18.206;2023-07-29T10:00:34;44.00;17.50
23395;DHT22;11870;53.084;18.206;2023-07-29T10:03:00;45.80;16.60
23395;DHT22;11870;53.084;18.206;2023-07-29T10:05:27;46.80;15.60
23395;DHT22;11870;53.084;18.206;2023-07-29T10:07:54;45.70;16.00
23395;DHT22;11870;53.084;18.206;2023-07-29T10:10:21;44.10;17.30
23395;DHT22;11870;53.084;18.206;2023-07-29T10:12:47;43.80;18.20
23395;DHT22;11870;53.084;18.206;2023-07-29T10:15:13;43.20;17.30
23395;DHT22;11870;53.084;18.206;2023-07-29T10:17:42;41.30;19.30
23395;DHT22;11870;53.084;18.206;2023-07-29T10:20:10;41.20;20.70
23395;DHT22;11870;53.084;18.206;2023-07-29T10:22:38;40.80;19.70
23395;DHT22;11870;53.084;18.206;2023-07-29T10:25:08;39.70;21.60
23395;DHT22;11870;53.084;18.206;2023-07-29T10:27:53;39.60;21.60
23395;DHT22;11870;53.084;18.206;2023-07-29T10:30:21;39.90;21.10
23395;DHT22;11870;53.084;18.206;2023-07-29T10:32:49;40.00;21.10
23395;DHT22;11870;53.084;18.206;2023-07-29T10:35:16;39.60;20.20
23395;DHT22;11870;53.084;18.206;2023-07-29T10:37:42;38.40;21.40
23395;DHT22;11870;53.084;18.206;2023-07-29T10:40:10;37.00;22.90
23395;DHT22;11870;53.084;18.206;2023-07-29T10:42:38;35.30;25.10
23395;DHT22;11870;53.084;18.206;2023-07-29T10:45:20;35.10;25.70
23395;DHT22;11870;53.084;18.206;2023-07-29T10:47:47;34.80;25.80
23395;DHT22;11870;53.084;18.206;2023-07-29T10:50:20;34.20;27.00
23395;DHT22;11870;53.084;18.206;2023-07-29T10:52:51;33.10;28.50
23395;DHT22;11870;53.084;18.206;2023-07-29T10:55:26;32.90;29.00
23395;DHT22;11870;53.084;18.206;2023-07-29T10:58:13;32.60;29.30
23395;DHT22;11870;53.084;18.206;2023-07-29T11:00:44;32.50;29.80
23395;DHT22;11870;53.084;18.206;2023-07-29T11:03:12;32.20;29.50
23395;DHT22;11870;53.084;18.206;2023-07-29T11:08:20;32.50;29.50
23395;DHT22;11870;53.084;18.206;2023-07-29T11:11:07;32.40;29.10
23395;DHT22;11870;53.084;18.206;2023-07-29T11:13:35;32.80;30.90
23395;DHT22;11870;53.084;18.206;2023-07-29T11:16:02;32.10;29.40
23395;DHT22;11870;53.084;18.206;2023-07-29T11:18:34;32.10;29.80
23395;DHT22;11870;53.084;18.206;2023-07-29T11:21:01;31.60;30.40
23395;DHT22;11870;53.084;18.206;2023-07-29T11:23:32;31.40;31.80
23395;DHT22;11870;53.084;18.206;2023-07-29T11:25:59;31.10;30.70
23395;DHT22;11870;53.084;18.206;2023-07-29T11:28:25;31.00;31.90
23395;DHT22;11870;53.084;18.206;2023-07-29T11:30:52;31.30;32.30
23395;DHT22;11870;53.084;18.206;2023-07-29T11:33:24;31.50;31.10
23395;DHT22;11870;53.084;18.206;2023-07-29T11:35:50;31.40;30.90
23395;DHT22;11870;53.084;18.206;2023-07-29T11:38:18;31.50;31.50
23395;DHT22;11870;53.084;18.206;2023-07-29T11:40:55;31.70;31.10
23395;DHT22;11870;53.084;18.206;2023-07-29T11:43:21;31.80;30.60
23395;DHT22;11870;53.084;18.206;2023-07-29T11:45:47;31.90;31.20
23395;DHT22;11870;53.084;18.206;2023-07-29T11:48:12;32.00;30.50
23395;DHT22;11870;53.084;18.206;2023-07-29T11:50:40;32.20;31.50
23395;DHT22;11870;53.084;18.206;2023-07-29T11:53:06;32.30;31.60
23395;DHT22;11870;53.084;18.206;2023-07-29T11:55:33;32.20;30.80
23395;DHT22;11870;53.084;18.206;2023-07-29T11:58:01;32.30;30.90
23395;DHT22;11870;53.084;18.206;2023-07-29T12:00:28;32.20;31.70
23395;DHT22;11870;53.084;18.206;2023-07-29T12:02:54;32.20;31.20
23395;DHT22;11870;53.084;18.206;2023-07-29T12:05:22;32.30;31.00
23395;DHT22;11870;53.084;18.206;2023-07-29T12:07:49;32.10;31.60
23395;DHT22;11870;53.084;18.206;2023-07-29T12:10:15;32.20;31.40
23395;DHT22;11870;53.084;18.206;2023-07-29T12:12:49;32.30;32.10
23395;DHT22;11870;53.084;18.206;2023-07-29T12:15:29;32.20;32.20
23395;DHT22;11870;53.084;18.206;2023-07-29T12:17:59;32.20;32.60
23395;DHT22;11870;53.084;18.206;2023-07-29T12:20:26;31.90;32.20
23395;DHT22;11870;53.084;18.206;2023-07-29T12:22:57;31.80;32.30
23395;DHT22;11870;53.084;18.206;2023-07-29T12:25:25;31.70;33.10
23395;DHT22;11870;53.084;18.206;2023-07-29T12:27:51;31.40;33.60
23395;DHT22;11870;53.084;18.206;2023-07-29T12:30:23;31.10;33.70
23395;DHT22;11870;53.084;18.206;2023-07-29T12:32:50;31.00;34.10
23395;DHT22;11870;53.084;18.206;2023-07-29T12:35:16;30.90;34.10
23395;DHT22;11870;53.084;18.206;2023-07-29T12:37:42;30.90;34.90
23395;DHT22;11870;53.084;18.206;2023-07-29T12:40:29;30.60;35.60
23395;DHT22;11870;53.084;18.206;2023-07-29T12:42:56;30.00;36.30
23395;DHT22;11870;53.084;18.206;2023-07-29T12:45:22;29.90;38.00
23395;DHT22;11870;53.084;18.206;2023-07-29T12:47:52;29.90;37.10
23395;DHT22;11870;53.084;18.206;2023-07-29T12:50:18;30.00;36.60
23395;DHT22;11870;53.084;18.206;2023-07-29T12:52:44;30.00;37.10
23395;DHT22;11870;53.084;18.206;2023-07-29T12:55:10;30.30;36.60
23395;DHT22;11870;53.084;18.206;2023-07-29T12:57:41;30.50;35.50
23395;DHT22;11870;53.084;18.206;2023-07-29T13:00:07;30.50;35.50
23395;DHT22;11870;53.084;18.206;2023-07-29T13:02:34;30.70;35.60
23395;DHT22;11870;53.084;18.206;2023-07-29T13:05:00;30.70;36.10
23395;DHT22;11870;53.084;18.206;2023-07-29T13:07:26;30.90;36.50
23395;DHT22;11870;53.084;18.206;2023-07-29T13:09:52;30.90;36.40
23395;DHT22;11870;53.084;18.206;2023-07-29T13:12:18;30.90;35.40
23395;DHT22;11870;53.084;18.206;2023-07-29T13:14:44;30.60;35.80
23395;DHT22;11870;53.084;18.206;2023-07-29T13:17:10;30.10;37.10
23395;DHT22;11870;53.084;18.206;2023-07-29T13:19:36;30.30;36.30
23395;DHT22;11870;53.084;18.206;2023-07-29T13:22:02;30.50;36.50
23395;DHT22;11870;53.084;18.206;2023-07-29T13:24:28;30.70;35.90
23395;DHT22;11870;53.084;18.206;2023-07-29T13:26:54;30.80;35.10
23395;DHT22;11870;53.084;18.206;2023-07-29T13:29:21;30.80;35.20
23395;DHT22;11870;53.084;18.206;2023-07-29T13:31:47;30.60;35.60
23395;DHT22;11870;53.084;18.206;2023-07-29T13:34:13;30.40;36.50
23395;DHT22;11870;53.084;18.206;2023-07-29T13:36:39;30.60;35.50
23395;DHT22;11870;53.084;18.206;2023-07-29T13:39:06;30.80;36.50
23395;DHT22;11870;53.084;18.206;2023-07-29T13:41:31;30.80;35.90
23395;DHT22;11870;53.084;18.206;2023-07-29T13:43:57;30.80;34.40
23395;DHT22;11870;53.084;18.206;2023-07-29T13:46:23;30.80;35.30
23395;DHT22;11870;53.084;18.206;2023-07-29T13:48:49;30.70;35.90
23395;DHT22;11870;53.084;18.206;2023-07-29T13:51:15;30.60;36.40
23395;DHT22;11870;53.084;18.206;2023-07-29T13:53:41;30.60;35.70
23395;DHT22;11870;53.084;18.206;2023-07-29T13:56:07;30.50;34.40
23395;DHT22;11870;53.084;18.206;2023-07-29T13:58:33;30.40;36.30
23395;DHT22;11870;53.084;18.206;2023-07-29T14:00:59;30.30;37.00
23395;DHT22;11870;53.084;18.206;2023-07-29T14:03:25;30.40;37.20
23395;DHT22;11870;53.084;18.206;2023-07-29T14:05:51;30.00;36.70
23395;DHT22;11870;53.084;18.206;2023-07-29T14:08:17;30.00;37.70
23395;DHT22;11870;53.084;18.206;2023-07-29T14:10:43;30.10;37.70
23395;DHT22;11870;53.084;18.206;2023-07-29T14:13:09;30.30;37.20
23395;DHT22;11870;53.084;18.206;2023-07-29T14:15:34;30.10;36.70
23395;DHT22;11870;53.084;18.206;2023-07-29T14:18:01;30.10;36.90
23395;DHT22;11870;53.084;18.206;2023-07-29T14:20:28;30.20;36.70
23395;DHT22;11870;53.084;18.206;2023-07-29T14:22:54;30.30;36.40
23395;DHT22;11870;53.084;18.206;2023-07-29T14:25:20;30.50;36.30
23395;DHT22;11870;53.084;18.206;2023-07-29T14:27:46;30.40;36.30
23395;DHT22;11870;53.084;18.206;2023-07-29T14:30:11;30.50;35.90
23395;DHT22;11870;53.084;18.206;2023-07-29T14:32:37;30.50;36.60
23395;DHT22;11870;53.084;18.206;2023-07-29T14:35:03;30.50;36.00
23395;DHT22;11870;53.084;18.206;2023-07-29T14:37:30;30.70;36.30
23395;DHT22;11870;53.084;18.206;2023-07-29T14:40:00;30.80;36.20
23395;DHT22;11870;53.084;18.206;2023-07-29T14:42:27;31.00;34.70
23395;DHT22;11870;53.084;18.206;2023-07-29T14:44:54;31.00;35.20
23395;DHT22;11870;53.084;18.206;2023-07-29T14:47:20;30.80;35.40
23395;DHT22;11870;53.084;18.206;2023-07-29T14:49:46;30.60;36.10
23395;DHT22;11870;53.084;18.206;2023-07-29T14:52:12;30.60;36.50
23395;DHT22;11870;53.084;18.206;2023-07-29T14:54:38;30.30;36.60
23395;DHT22;11870;53.084;18.206;2023-07-29T14:57:06;30.10;37.40
23395;DHT22;11870;53.084;18.206;2023-07-29T14:59:32;29.80;38.70
23395;DHT22;11870;53.084;18.206;2023-07-29T15:01:58;29.50;39.00
23395;DHT22;11870;53.084;18.206;2023-07-29T15:04:24;29.40;39.20
23395;DHT22;11870;53.084;18.206;2023-07-29T15:06:50;29.30;38.80
23395;DHT22;11870;53.084;18.206;2023-07-29T15:09:17;29.50;40.20
23395;DHT22;11870;53.084;18.206;2023-07-29T15:11:43;29.60;38.60
23395;DHT22;11870;53.084;18.206;2023-07-29T15:14:09;29.50;37.80
23395;DHT22;11870;53.084;18.206;2023-07-29T15:16:35;29.40;37.80
23395;DHT22;11870;53.084;18.206;2023-07-29T15:19:03;29.30;38.40
23395;DHT22;11870;53.084;18.206;2023-07-29T15:21:30;29.10;38.40
23395;DHT22;11870;53.084;18.206;2023-07-29T15:23:56;28.80;39.20
23395;DHT22;11870;53.084;18.206;2023-07-29T15:26:21;28.80;39.80
23395;DHT22;11870;53.084;18.206;2023-07-29T15:28:47;28.70;40.30
23395;DHT22;11870;53.084;18.206;2023-07-29T15:31:13;28.40;41.40
23395;DHT22;11870;53.084;18.206;2023-07-29T15:33:39;28.10;42.60
23395;DHT22;11870;53.084;18.206;2023-07-29T15:36:05;28.00;43.40
23395;DHT22;11870;53.084;18.206;2023-07-29T15:38:31;27.90;43.90
23395;DHT22;11870;53.084;18.206;2023-07-29T15:40:57;27.80;44.40
23395;DHT22;11870;53.084;18.206;2023-07-29T15:43:23;27.60;44.00
23395;DHT22;11870;53.084;18.206;2023-07-29T15:45:49;27.50;44.80
23395;DHT22;11870;53.084;18.206;2023-07-29T15:48:15;25.00;99.90
23395;DHT22;11870;53.084;18.206;2023-07-29T15:50:41;23.50;99.90
23395;DHT22;11870;53.084;18.206;2023-07-29T15:53:07;22.70;99.90
23395;DHT22;11870;53.084;18.206;2023-07-29T15:55:33;22.00;99.90
23395;DHT22;11870;53.084;18.206;2023-07-29T15:57:59;21.80;99.90
23395;DHT22;11870;53.084;18.206;2023-07-29T16:00:25;21.50;99.90
23395;DHT22;11870;53.084;18.206;2023-07-29T16:02:53;21.40;99.90
23395;DHT22;11870;53.084;18.206;2023-07-29T16:05:18;21.30;99.90
23395;DHT22;11870;53.084;18.206;2023-07-29T16:07:44;21.50;99.90
23395;DHT22;11870;53.084;18.206;2023-07-29T16:10:10;20.80;99.90
23395;DHT22;11870;53.084;18.206;2023-07-29T16:12:36;20.30;99.90
23395;DHT22;11870;53.084;18.206;2023-07-29T16:15:10;19.90;99.90
23395;DHT22;11870;53.084;18.206;2023-07-29T16:17:36;19.60;99.90
23395;DHT22;11870;53.084;18.206;2023-07-29T16:20:03;19.20;99.90
23395;DHT22;11870;53.084;18.206;2023-07-29T16:22:29;19.00;99.90
23395;DHT22;11870;53.084;18.206;2023-07-29T16:24:55;18.60;99.90
23395;DHT22;11870;53.084;18.206;2023-07-29T16:27:21;18.60;99.90
23395;DHT22;11870;53.084;18.206;2023-07-29T16:29:48;18.50;99.90
23395;DHT22;11870;53.084;18.206;2023-07-29T16:32:17;18.40;99.90
23395;DHT22;11870;53.084;18.206;2023-07-29T16:34:43;18.30;99.90
23395;DHT22;11870;53.084;18.206;2023-07-29T16:37:09;18.30;99.90
23395;DHT22;11870;53.084;18.206;2023-07-29T16:39:36;18.20;99.90
23395;DHT22;11870;53.084;18.206;2023-07-29T16:42:02;18.20;99.90
23395;DHT22;11870;53.084;18.206;2023-07-29T16:44:28;18.10;99.90
23395;DHT22;11870;53.084;18.206;2023-07-29T16:46:53;18.10;99.90
23395;DHT22;11870;53.084;18.206;2023-07-29T16:49:19;18.10;99.90
23395;DHT22;11870;53.084;18.206;2023-07-29T16:51:45;19.90;99.90
23395;DHT22;11870;53.084;18.206;2023-07-29T16:54:11;18.20;99.90
23395;DHT22;11870;53.084;18.206;2023-07-29T16:56:39;18.20;99.90
23395;DHT22;11870;53.084;18.206;2023-07-29T16:59:05;18.30;99.90
23395;DHT22;11870;53.084;18.206;2023-07-29T17:01:31;18.40;99.90
23395;DHT22;11870;53.084;18.206;2023-07-29T17:03:57;18.40;99.90
23395;DHT22;11870;53.084;18.206;2023-07-29T17:06:22;18.50;99.90
23395;DHT22;11870;53.084;18.206;2023-07-29T17:08:48;18.50;99.90
23395;DHT22;11870;53.084;18.206;2023-07-29T17:11:14;18.60;99.90
23395;DHT22;11870;53.084;18.206;2023-07-29T17:13:40;18.70;99.90
23395;DHT22;11870;53.084;18.206;2023-07-29T17:16:06;18.70;99.90
23395;DHT22;11870;53.084;18.206;2023-07-29T17:18:32;18.70;99.90
23395;DHT22;11870;53.084;18.206;2023-07-29T17:20:59;18.70;99.90
23395;DHT22;11870;53.084;18.206;2023-07-29T17:23:25;18.70;99.90
23395;DHT22;11870;53.084;18.206;2023-07-29T17:25:51;18.70;99.90
23395;DHT22;11870;53.084;18.206;2023-07-29T17:28:17;18.80;99.90
23395;DHT22;11870;53.084;18.206;2023-07-29T17:30:43;18.70;99.90
23395;DHT22;11870;53.084;18.206;2023-07-29T17:33:09;18.70;99.90
23395;DHT22;11870;53.084;18.206;2023-07-29T17:35:35;18.80;99.90
23395;DHT22;11870;53.084;18.206;2023-07-29T17:38:01;18.70;99.90
23395;DHT22;11870;53.084;18.206;2023-07-29T17:40:27;18.70;99.90
23395;DHT22;11870;53.084;18.206;2023-07-29T17:45:19;18.70;99.90
23395;DHT22;11870;53.084;18.206;2023-07-29T17:47:45;18.80;99.90
23395;DHT22;11870;53.084;18.206;2023-07-29T17:50:11;18.80;99.90
23395;DHT22;11870;53.084;18.206;2023-07-29T17:52:37;18.70;99.90
23395;DHT22;11870;53.084;18.206;2023-07-29T17:55:03;18.60;99.90
23395;DHT22;11870;53.084;18.206;2023-07-29T17:57:29;18.50;99.90
23395;DHT22;11870;53.084;18.206;2023-07-29T17:59:55;18.20;99.90
23395;DHT22;11870;53.084;18.206;2023-07-29T18:02:21;18.30;99.90
23395;DHT22;11870;53.084;18.206;2023-07-29T18:04:46;18.20;99.90
23395;DHT22;11870;53.084;18.206;2023-07-29T18:07:12;18.10;99.90
23395;DHT22;11870;53.084;18.206;2023-07-29T18:09:38;18.00;99.90
23395;DHT22;11870;53.084;18.206;2023-07-29T18:12:05;17.90;99.90
23395;DHT22;11870;53.084;18.206;2023-07-29T18:14:31;17.90;99.90
23395;DHT22;11870;53.084;18.206;2023-07-29T18:16:57;17.80;99.90
23395;DHT22;11870;53.084;18.206;2023-07-29T18:19:23;18.80;99.90
23395;DHT22;11870;53.084;18.206;2023-07-29T18:21:50;17.80;99.90
23395;DHT22;11870;53.084;18.206;2023-07-29T18:24:16;17.70;99.90
23395;DHT22;11870;53.084;18.206;2023-07-29T18:26:42;17.70;99.90
23395;DHT22;11870;53.084;18.206;2023-07-29T18:29:08;17.70;99.90
23395;DHT22;11870;53.084;18.206;2023-07-29T18:31:34;17.70;99.90
23395;DHT22;11870;53.084;18.206;2023-07-29T18:34:00;17.70;99.90
23395;DHT22;11870;53.084;18.206;2023-07-29T18:36:26;17.70;99.90
23395;DHT22;11870;53.084;18.206;2023-07-29T18:38:53;17.60;99.90
23395;DHT22;11870;53.084;18.206;2023-07-29T18:41:19;17.60;99.90
23395;DHT22;11870;53.084;18.206;2023-07-29T18:43:45;17.60;99.90
23395;DHT22;11870;53.084;18.206;2023-07-29T18:46:11;17.60;99.90
23395;DHT22;11870;53.084;18.206;2023-07-29T18:48:37;17.60;99.90
23395;DHT22;11870;53.084;18.206;2023-07-29T18:51:03;17.50;99.90
23395;DHT22;11870;53.084;18.206;2023-07-29T18:53:31;17.50;99.90
23395;DHT22;11870;53.084;18.206;2023-07-29T18:55:57;17.50;99.90
23395;DHT22;11870;53.084;18.206;2023-07-29T18:58:23;17.50;99.90
23395;DHT22;11870;53.084;18.206;2023-07-29T19:00:49;17.70;99.90
23395;DHT22;11870;53.084;18.206;2023-07-29T19:03:15;17.50;99.90
23395;DHT22;11870;53.084;18.206;2023-07-29T19:05:41;17.40;99.90
23395;DHT22;11870;53.084;18.206;2023-07-29T19:08:07;17.30;99.90
23395;DHT22;11870;53.084;18.206;2023-07-29T19:10:34;17.40;99.90
23395;DHT22;11870;53.084;18.206;2023-07-29T19:13:00;17.50;99.90
23395;DHT22;11870;53.084;18.206;2023-07-29T19:15:26;17.80;99.90
23395;DHT22;11870;53.084;18.206;2023-07-29T19:17:52;17.50;99.90
23395;DHT22;11870;53.084;18.206;2023-07-29T19:20:19;17.60;99.90
23395;DHT22;11870;53.084;18.206;2023-07-29T19:22:45;17.40;99.90
23395;DHT22;11870;53.084;18.206;2023-07-29T19:25:11;17.40;99.90
23395;DHT22;11870;53.084;18.206;2023-07-29T19:27:37;17.30;99.90
23395;DHT22;11870;53.084;18.206;2023-07-29T19:30:04;17.40;99.90
23395;DHT22;11870;53.084;18.206;2023-07-29T19:32:30;17.50;99.90
23395;DHT22;11870;53.084;18.206;2023-07-29T19:34:56;17.50;99.90
23395;DHT22;11870;53.084;18.206;2023-07-29T19:37:22;17.50;99.90
23395;DHT22;11870;53.084;18.206;2023-07-29T19:39:51;17.50;99.90
23395;DHT22;11870;53.084;18.206;2023-07-29T19:42:17;17.40;99.90
23395;DHT22;11870;53.084;18.206;2023-07-29T19:44:43;17.20;99.90
23395;DHT22;11870;53.084;18.206;2023-07-29T19:47:09;17.20;99.90
23395;DHT22;11870;53.084;18.206;2023-07-29T19:49:35;17.20;99.90
23395;DHT22;11870;53.084;18.206;2023-07-29T19:52:01;17.20;99.90
23395;DHT22;11870;53.084;18.206;2023-07-29T19:54:28;17.30;99.90
23395;DHT22;11870;53.084;18.206;2023-07-29T19:56:54;17.30;99.90
23395;DHT22;11870;53.084;18.206;2023-07-29T19:59:20;17.50;99.90
23395;DHT22;11870;53.084;18.206;2023-07-29T20:01:46;17.50;99.90
23395;DHT22;11870;53.084;18.206;2023-07-29T20:04:12;17.90;99.90
23395;DHT22;11870;53.084;18.206;2023-07-29T20:06:38;17.50;99.90
23395;DHT22;11870;53.084;18.206;2023-07-29T20:09:04;17.50;99.90
23395;DHT22;11870;53.084;18.206;2023-07-29T20:11:30;17.40;99.90
23395;DHT22;11870;53.084;18.206;2023-07-29T20:13:56;17.10;99.90
23395;DHT22;11870;53.084;18.206;2023-07-29T20:16:22;17.20;99.90
23395;DHT22;11870;53.084;18.206;2023-07-29T20:18:49;17.10;99.90
23395;DHT22;11870;53.084;18.206;2023-07-29T20:21:15;17.10;99.90
23395;DHT22;11870;53.084;18.206;2023-07-29T20:23:41;17.00;99.90
23395;DHT22;11870;53.084;18.206;2023-07-29T20:26:07;17.00;99.90
23395;DHT22;11870;53.084;18.206;2023-07-29T20:28:33;17.00;99.90
23395;DHT22;11870;53.084;18.206;2023-07-29T20:30:59;17.00;99.90
23395;DHT22;11870;53.084;18.206;2023-07-29T20:33:26;16.90;99.90
23395;DHT22;11870;53.084;18.206;2023-07-29T20:35:53;16.90;99.90
23395;DHT22;11870;53.084;18.206;2023-07-29T20:38:20;16.90;99.90
23395;DHT22;11870;53.084;18.206;2023-07-29T20:40:54;16.90;99.90
23395;DHT22;11870;53.084;18.206;2023-07-29T20:43:24;16.80;99.90
23395;DHT22;11870;53.084;18.206;2023-07-29T20:45:50;16.70;99.90
23395;DHT22;11870;53.084;18.206;2023-07-29T20:48:17;16.70;99.90
23395;DHT22;11870;53.084;18.206;2023-07-29T20:50:43;16.60;99.90
23395;DHT22;11870;53.084;18.206;2023-07-29T20:53:10;16.60;99.90
23395;DHT22;11870;53.084;18.206;2023-07-29T20:55:36;16.50;99.90
23395;DHT22;11870;53.084;18.206;2023-07-29T20:58:03;16.50;99.90
23395;DHT22;11870;53.084;18.206;2023-07-29T21:00:29;16.40;99.90
23395;DHT22;11870;53.084;18.206;2023-07-29T21:02:58;16.40;99.90
23395;DHT22;11870;53.084;18.206;2023-07-29T21:05:25;16.40;99.90